sensor_id;sensor_type;location;lat;lon;timestamp;pressure;altitude;pressure_sealevel;temperature;humidity
977;BME280;477;51.436;7.292;2022-09-30T04:04:27;99971.84;;;6.86;100.00
977;BME280;477;51.436;7.292;2022-09-30T04:06:56;99977.78;;;6.88;100.00
977;BME280;477;51.436;7.292;2022-09-30T04:09:25;99986.47;;;7.09;100.00
977;BME280;477;51.436;7.292;2022-09-30T04:11:53;99986.47;;;7.09;100.00
977;BME280;477;51.436;7.292;2022-09-30T04:14:22;99987.44;;;7.06;100.00
977;BME280;477;51.436;7.292;2022-09-30T04:16:50;99988.47;;;7.02;100.00
977;BME280;477;51.436;7.292;2022-09-30T04:19:20;99993.47;;;7.06;100.00
977;BME280;477;51.436;7.292;2022-09-30T04:21:51;99992.66;;;7.04;100.00
977;BME280;477;51.436;7.292;2022-09-30T04:24:21;99994.72;;;6.96;100.00
977;BME280;477;51.436;7.292;2022-09-30T04:26:50;99992.88;;;7.00;100.00
977;BME280;477;51.436;7.292;2022-09-30T04:29:19;99999.22;;;6.91;100.00
977;BME280;477;51.436;7.292;2022-09-30T04:31:47;100008.56;;;6.72;100.00
977;BME280;477;51.436;7.292;2022-09-30T04:34:15;99996.25;;;6.55;100.00
977;BME280;477;51.436;7.292;2022-09-30T04:36:44;100014.44;;;6.53;100.00
977;BME280;477;51.436;7.292;2022-09-30T04:39:14;100011.16;;;6.72;100.00
977;BME280;477;51.436;7.292;2022-09-30T04:41:42;100016.31;;;6.72;100.00
977;BME280;477;51.436;7.292;2022-09-30T04:44:10;100017.22;;;6.71;100.00
977;BME280;477;51.436;7.292;2022-09-30T04:46:39;100017.22;;;6.71;100.00
977;BME280;477;51.436;7.292;2022-09-30T04:49:09;100015.31;;;6.76;100.00
977;BME280;477;51.436;7.292;2022-09-30T04:52:04;100024.47;;;6.61;100.00
977;BME280;477;51.436;7.292;2022-09-30T04:54:34;100026.00;;;6.67;100.00
977;BME280;477;51.436;7.292;2022-09-30T04:57:03;100040.63;;;6.91;100.00
977;BME280;477;51.436;7.292;2022-09-30T04:59:31;100031.81;;;6.73;100.00
977;BME280;477;51.436;7.292;2022-09-30T05:01:59;100033.44;;;6.52;100.00
977;BME280;477;51.436;7.292;2022-09-30T05:04:28;100027.59;;;6.71;100.00
977;BME280;477;51.436;7.292;2022-09-30T05:06:59;100026.19;;;6.86;100.00
977;BME280;477;51.436;7.292;2022-09-30T05:09:34;100029.59;;;6.63;100.00
977;BME280;477;51.436;7.292;2022-09-30T05:12:08;100030.50;;;6.38;100.00
977;BME280;477;51.436;7.292;2022-09-30T05:14:36;100028.81;;;6.37;100.00
977;BME280;477;51.436;7.292;2022-09-30T05:17:05;100029.41;;;6.44;100.00
977;BME280;477;51.436;7.292;2022-09-30T05:19:33;100036.75;;;6.31;100.00
977;BME280;477;51.436;7.292;2022-09-30T05:22:01;100038.09;;;6.18;100.00
977;BME280;477;51.436;7.292;2022-09-30T05:24:30;100038.72;;;6.24;100.00
977;BME280;477;51.436;7.292;2022-09-30T05:27:01;100046.22;;;6.32;100.00
977;BME280;477;51.436;7.292;2022-09-30T05:29:29;100048.81;;;6.32;100.00
977;BME280;477;51.436;7.292;2022-09-30T05:31:57;100052.19;;;6.58;100.00
977;BME280;477;51.436;7.292;2022-09-30T05:34:26;100048.59;;;6.62;100.00
977;BME280;477;51.436;7.292;2022-09-30T05:36:54;59986.63;;;-146.42;100.00
977;BME280;477;51.436;7.292;2022-09-30T05:39:23;59986.63;;;-146.42;100.00
977;BME280;477;51.436;7.292;2022-09-30T05:41:51;100043.91;;;6.96;100.00
977;BME280;477;51.436;7.292;2022-09-30T05:44:22;59986.63;;;-146.42;100.00
977;BME280;477;51.436;7.292;2022-09-30T05:47:27;59986.63;;;-146.42;100.00
977;BME280;477;51.436;7.292;2022-09-30T05:49:56;59986.63;;;-146.42;100.00
977;BME280;477;51.436;7.292;2022-09-30T05:55:31;100072.47;;;6.20;100.00
977;BME280;477;51.436;7.292;2022-09-30T05:59:03;59986.63;;;-146.42;100.00
977;BME280;477;51.436;7.292;2022-09-30T06:02:07;59986.63;;;-146.42;100.00
977;BME280;477;51.436;7.292;2022-09-30T06:04:35;59986.63;;;-146.42;100.00
977;BME280;477;51.436;7.292;2022-09-30T06:07:04;100072.47;;;6.20;100.00
977;BME280;477;51.436;7.292;2022-09-30T06:09:36;59986.63;;;-146.42;100.00
977;BME280;477;51.436;7.292;2022-09-30T06:12:05;59986.63;;;-146.42;100.00
977;BME280;477;51.436;7.292;2022-09-30T06:14:33;59986.63;;;-146.42;100.00
977;BME280;477;51.436;7.292;2022-09-30T06:17:03;59986.63;;;-146.42;100.00
977;BME280;477;51.436;7.292;2022-09-30T06:19:34;59986.63;;;-146.42;100.00
977;BME280;477;51.436;7.292;2022-09-30T06:23:01;59986.63;;;-146.42;100.00
977;BME280;477;51.436;7.292;2022-09-30T06:25:40;59986.63;;;-146.42;100.00
977;BME280;477;51.436;7.292;2022-09-30T06:28:10;59986.63;;;-146.42;100.00
977;BME280;477;51.436;7.292;2022-09-30T06:30:40;59986.63;;;-146.42;100.00
977;BME280;477;51.436;7.292;2022-09-30T06:33:12;59986.63;;;-146.42;100.00
977;BME280;477;51.436;7.292;2022-09-30T06:35:41;100107.84;;;6.44;100.00
977;BME280;477;51.436;7.292;2022-09-30T06:38:10;100114.81;;;6.42;100.00
977;BME280;477;51.436;7.292;2022-09-30T06:40:39;100114.81;;;6.42;100.00
977;BME280;477;51.436;7.292;2022-09-30T06:43:07;59986.63;;;-146.42;100.00
977;BME280;477;51.436;7.292;2022-09-30T06:45:36;59986.63;;;-146.42;100.00
977;BME280;477;51.436;7.292;2022-09-30T06:48:06;59986.63;;;-146.42;100.00
977;BME280;477;51.436;7.292;2022-09-30T06:50:37;100123.31;;;6.71;100.00
977;BME280;477;51.436;7.292;2022-09-30T06:53:09;59986.63;;;-146.42;100.00
977;BME280;477;51.436;7.292;2022-09-30T06:55:38;59986.63;;;-146.42;100.00
977;BME280;477;51.436;7.292;2022-09-30T06:58:19;59986.63;;;-146.42;100.00
977;BME280;477;51.436;7.292;2022-09-30T07:01:54;59986.63;;;-146.42;100.00
977;BME280;477;51.436;7.292;2022-09-30T07:04:22;100143.91;;;6.74;100.00
977;BME280;477;51.436;7.292;2022-09-30T07:06:52;100132.66;;;6.75;100.00
977;BME280;477;51.436;7.292;2022-09-30T07:09:21;59986.63;;;-146.42;100.00
977;BME280;477;51.436;7.292;2022-09-30T07:11:50;100132.66;;;6.75;100.00
977;BME280;477;51.436;7.292;2022-09-30T07:14:19;59986.63;;;-146.42;100.00
977;BME280;477;51.436;7.292;2022-09-30T07:16:50;59986.63;;;-146.42;100.00
977;BME280;477;51.436;7.292;2022-09-30T07:19:19;59986.63;;;-146.42;nan
977;BME280;477;51.436;7.292;2022-09-30T07:21:49;59986.63;;;-146.42;100.00
977;BME280;477;51.436;7.292;2022-09-30T07:24:19;117688.13;;;6.75;100.00
977;BME280;477;51.436;7.292;2022-09-30T07:26:47;59986.63;;;-146.42;100.00
977;BME280;477;51.436;7.292;2022-09-30T07:29:15;59986.63;;;-146.42;100.00
977;BME280;477;51.436;7.292;2022-09-30T07:31:44;59986.63;;;-146.42;100.00
977;BME280;477;51.436;7.292;2022-09-30T07:34:12;100160.50;;;7.17;100.00
977;BME280;477;51.436;7.292;2022-09-30T07:36:41;100164.66;;;7.21;100.00
977;BME280;477;51.436;7.292;2022-09-30T07:39:10;100159.25;;;7.27;100.00
977;BME280;477;51.436;7.292;2022-09-30T07:41:39;100162.69;;;7.27;100.00
977;BME280;477;51.436;7.292;2022-09-30T07:44:12;100168.38;;;7.37;100.00
977;BME280;477;51.436;7.292;2022-09-30T07:46:43;100162.91;;;7.45;100.00
977;BME280;477;51.436;7.292;2022-09-30T07:49:14;100159.19;;;7.52;100.00
977;BME280;477;51.436;7.292;2022-09-30T07:51:53;100160.72;;;7.57;100.00
977;BME280;477;51.436;7.292;2022-09-30T07:54:24;100169.03;;;7.66;100.00
977;BME280;477;51.436;7.292;2022-09-30T07:56:55;100168.75;;;7.73;100.00
977;BME280;477;51.436;7.292;2022-09-30T07:59:38;100172.72;;;7.82;100.00
977;BME280;477;51.436;7.292;2022-09-30T08:02:13;100169.03;;;7.88;100.00
977;BME280;477;51.436;7.292;2022-09-30T08:04:42;100168.69;;;7.97;100.00
977;BME280;477;51.436;7.292;2022-09-30T08:07:14;100174.69;;;7.97;100.00
977;BME280;477;51.436;7.292;2022-09-30T08:09:43;100165.59;;;8.09;100.00
977;BME280;477;51.436;7.292;2022-09-30T08:12:12;100173.75;;;8.22;100.00
977;BME280;477;51.436;7.292;2022-09-30T08:14:41;100175.91;;;8.32;100.00
977;BME280;477;51.436;7.292;2022-09-30T08:17:10;100179.38;;;8.53;100.00
977;BME280;477;51.436;7.292;2022-09-30T08:19:40;100182.63;;;8.58;100.00
977;BME280;477;51.436;7.292;2022-09-30T08:22:10;100178.94;;;8.64;100.00
977;BME280;477;51.436;7.292;2022-09-30T08:24:53;100174.72;;;8.82;100.00
977;BME280;477;51.436;7.292;2022-09-30T08:27:23;100171.16;;;8.84;100.00
977;BME280;477;51.436;7.292;2022-09-30T08:29:51;100175.97;;;8.94;100.00
977;BME280;477;51.436;7.292;2022-09-30T08:32:23;100172.63;;;8.90;100.00
977;BME280;477;51.436;7.292;2022-09-30T08:34:51;100168.81;;;8.99;100.00
977;BME280;477;51.436;7.292;2022-09-30T08:37:27;100175.09;;;9.13;100.00
977;BME280;477;51.436;7.292;2022-09-30T08:39:55;100174.38;;;9.29;100.00
977;BME280;477;51.436;7.292;2022-09-30T08:42:43;100178.53;;;9.33;100.00
977;BME280;477;51.436;7.292;2022-09-30T08:45:30;100178.22;;;9.40;100.00
977;BME280;477;51.436;7.292;2022-09-30T08:48:18;100180.75;;;9.61;100.00
977;BME280;477;51.436;7.292;2022-09-30T08:50:55;100187.59;;;9.81;100.00
977;BME280;477;51.436;7.292;2022-09-30T08:53:30;100169.91;;;9.70;100.00
977;BME280;477;51.436;7.292;2022-09-30T08:56:01;100179.66;;;9.84;100.00
977;BME280;477;51.436;7.292;2022-09-30T08:58:36;100177.69;;;10.08;100.00
977;BME280;477;51.436;7.292;2022-09-30T09:01:16;100181.88;;;10.10;100.00
977;BME280;477;51.436;7.292;2022-09-30T09:03:47;100179.50;;;10.06;100.00
977;BME280;477;51.436;7.292;2022-09-30T09:06:27;100179.91;;;10.15;100.00
977;BME280;477;51.436;7.292;2022-09-30T09:09:26;100186.47;;;10.23;100.00
977;BME280;477;51.436;7.292;2022-09-30T09:12:12;100187.09;;;10.47;100.00
977;BME280;477;51.436;7.292;2022-09-30T09:14:56;100194.50;;;10.54;100.00
977;BME280;477;51.436;7.292;2022-09-30T09:17:43;100191.63;;;10.60;100.00
977;BME280;477;51.436;7.292;2022-09-30T09:20:47;100195.28;;;10.74;100.00
977;BME280;477;51.436;7.292;2022-09-30T09:23:18;100190.97;;;10.90;100.00
977;BME280;477;51.436;7.292;2022-09-30T09:25:47;100188.59;;;10.85;100.00
977;BME280;477;51.436;7.292;2022-09-30T09:28:30;100188.91;;;10.96;100.00
977;BME280;477;51.436;7.292;2022-09-30T09:31:07;100185.16;;;11.02;100.00
977;BME280;477;51.436;7.292;2022-09-30T09:33:40;100183.84;;;11.27;100.00
977;BME280;477;51.436;7.292;2022-09-30T09:36:23;100186.19;;;11.15;100.00
977;BME280;477;51.436;7.292;2022-09-30T09:39:12;100189.75;;;11.30;100.00
977;BME280;477;51.436;7.292;2022-09-30T09:41:55;100178.84;;;11.39;100.00
977;BME280;477;51.436;7.292;2022-09-30T09:44:34;100177.66;;;11.45;100.00
977;BME280;477;51.436;7.292;2022-09-30T09:47:10;100171.63;;;11.60;100.00
977;BME280;477;51.436;7.292;2022-09-30T09:49:42;100163.81;;;11.60;100.00
977;BME280;477;51.436;7.292;2022-09-30T09:52:47;100172.75;;;11.88;100.00
977;BME280;477;51.436;7.292;2022-09-30T09:55:21;100172.66;;;11.89;100.00
977;BME280;477;51.436;7.292;2022-09-30T09:58:05;100162.31;;;12.04;100.00
977;BME280;477;51.436;7.292;2022-09-30T10:00:35;100166.78;;;12.32;100.00
977;BME280;477;51.436;7.292;2022-09-30T10:03:23;100162.19;;;12.21;100.00
977;BME280;477;51.436;7.292;2022-09-30T10:06:04;100174.63;;;12.32;100.00
977;BME280;477;51.436;7.292;2022-09-30T10:08:36;100169.59;;;12.28;100.00
977;BME280;477;51.436;7.292;2022-09-30T10:11:16;100167.28;;;12.38;100.00
977;BME280;477;51.436;7.292;2022-09-30T10:13:47;100171.91;;;12.49;100.00
977;BME280;477;51.436;7.292;2022-09-30T10:16:36;100171.00;;;12.64;100.00
977;BME280;477;51.436;7.292;2022-09-30T10:19:20;100164.28;;;12.60;100.00
977;BME280;477;51.436;7.292;2022-09-30T10:21:49;100170.63;;;12.70;100.00
977;BME280;477;51.436;7.292;2022-09-30T10:24:28;100167.84;;;12.88;100.00
977;BME280;477;51.436;7.292;2022-09-30T10:26:57;100167.66;;;12.76;100.00
977;BME280;477;51.436;7.292;2022-09-30T10:29:29;100165.81;;;12.93;100.00
977;BME280;477;51.436;7.292;2022-09-30T10:31:59;100164.13;;;12.92;100.00
977;BME280;477;51.436;7.292;2022-09-30T10:34:32;100159.66;;;13.08;100.00
977;BME280;477;51.436;7.292;2022-09-30T10:37:08;100158.44;;;13.14;100.00
977;BME280;477;51.436;7.292;2022-09-30T10:39:39;100171.34;;;13.31;100.00
977;BME280;477;51.436;7.292;2022-09-30T10:42:16;100161.94;;;13.28;100.00
977;BME280;477;51.436;7.292;2022-09-30T10:44:55;100161.38;;;13.38;100.00
977;BME280;477;51.436;7.292;2022-09-30T10:47:25;100152.56;;;13.53;100.00
977;BME280;477;51.436;7.292;2022-09-30T10:50:05;100156.28;;;13.63;100.00
977;BME280;477;51.436;7.292;2022-09-30T10:52:38;100156.09;;;13.52;100.00
977;BME280;477;51.436;7.292;2022-09-30T10:55:27;100151.97;;;13.62;100.00
977;BME280;477;51.436;7.292;2022-09-30T10:58:19;100154.94;;;13.84;100.00
977;BME280;477;51.436;7.292;2022-09-30T11:00:52;100153.28;;;13.69;100.00
977;BME280;477;51.436;7.292;2022-09-30T11:03:26;100154.28;;;13.81;100.00
977;BME280;477;51.436;7.292;2022-09-30T11:05:59;100155.50;;;13.75;100.00
977;BME280;477;51.436;7.292;2022-09-30T11:08:34;100164.47;;;13.71;100.00
977;BME280;477;51.436;7.292;2022-09-30T11:11:10;100158.41;;;13.71;100.00
977;BME280;477;51.436;7.292;2022-09-30T11:13:45;100151.78;;;13.65;100.00
977;BME280;477;51.436;7.292;2022-09-30T11:16:24;100157.94;;;13.78;100.00
977;BME280;477;51.436;7.292;2022-09-30T11:19:02;100166.34;;;13.83;100.00
977;BME280;477;51.436;7.292;2022-09-30T11:21:41;100162.22;;;13.79;100.00
977;BME280;477;51.436;7.292;2022-09-30T11:24:23;100174.41;;;13.93;100.00
977;BME280;477;51.436;7.292;2022-09-30T11:27:00;100176.97;;;13.95;100.00
977;BME280;477;51.436;7.292;2022-09-30T11:29:57;100173.97;;;13.87;100.00
977;BME280;477;51.436;7.292;2022-09-30T11:32:45;100177.59;;;13.98;100.00
977;BME280;477;51.436;7.292;2022-09-30T11:35:34;100171.97;;;14.04;100.00
977;BME280;477;51.436;7.292;2022-09-30T11:38:30;100174.63;;;14.17;100.00
977;BME280;477;51.436;7.292;2022-09-30T11:41:08;100168.03;;;14.24;100.00
977;BME280;477;51.436;7.292;2022-09-30T11:43:46;100168.94;;;14.38;100.00
977;BME280;477;51.436;7.292;2022-09-30T11:46:35;100167.69;;;14.43;100.00
977;BME280;477;51.436;7.292;2022-09-30T11:49:35;100167.19;;;14.51;100.00
977;BME280;477;51.436;7.292;2022-09-30T11:52:14;100168.47;;;14.58;100.00
977;BME280;477;51.436;7.292;2022-09-30T11:55:19;100175.94;;;14.64;100.00
977;BME280;477;51.436;7.292;2022-09-30T11:57:54;100168.19;;;14.75;100.00
977;BME280;477;51.436;7.292;2022-09-30T12:00:48;100165.06;;;14.83;96.17
977;BME280;477;51.436;7.292;2022-09-30T12:03:24;100163.16;;;14.85;99.61
977;BME280;477;51.436;7.292;2022-09-30T12:05:57;100164.00;;;14.85;100.00
977;BME280;477;51.436;7.292;2022-09-30T12:08:30;100162.75;;;14.91;97.70
977;BME280;477;51.436;7.292;2022-09-30T12:11:08;100156.25;;;14.84;100.00
977;BME280;477;51.436;7.292;2022-09-30T12:13:40;100158.34;;;15.04;100.00
977;BME280;477;51.436;7.292;2022-09-30T12:16:16;100144.50;;;15.15;100.00
977;BME280;477;51.436;7.292;2022-09-30T12:18:51;100142.38;;;15.20;98.84
977;BME280;477;51.436;7.292;2022-09-30T12:21:25;100142.66;;;15.28;94.55
977;BME280;477;51.436;7.292;2022-09-30T12:24:01;100141.00;;;15.27;97.77
977;BME280;477;51.436;7.292;2022-09-30T12:26:33;100135.03;;;15.25;99.44
977;BME280;477;51.436;7.292;2022-09-30T12:29:06;100134.38;;;15.34;100.00
977;BME280;477;51.436;7.292;2022-09-30T12:32:35;100127.53;;;15.45;94.59
977;BME280;477;51.436;7.292;2022-09-30T12:35:27;100120.91;;;15.52;95.44
977;BME280;477;51.436;7.292;2022-09-30T12:38:17;100119.84;;;15.54;91.74
977;BME280;477;51.436;7.292;2022-09-30T12:41:09;100121.41;;;15.70;93.54
977;BME280;477;51.436;7.292;2022-09-30T12:47:18;100117.72;;;15.72;92.15
977;BME280;477;51.436;7.292;2022-09-30T12:49:52;100109.84;;;15.72;90.35
977;BME280;477;51.436;7.292;2022-09-30T12:52:22;100103.25;;;15.67;90.87
977;BME280;477;51.436;7.292;2022-09-30T12:54:54;100099.84;;;15.77;90.71
977;BME280;477;51.436;7.292;2022-09-30T12:57:26;100098.09;;;15.89;89.38
977;BME280;477;51.436;7.292;2022-09-30T13:00:03;100105.91;;;16.02;83.68
977;BME280;477;51.436;7.292;2022-09-30T13:02:36;100100.44;;;16.05;85.17
977;BME280;477;51.436;7.292;2022-09-30T13:05:54;100095.41;;;16.02;86.73
977;BME280;477;51.436;7.292;2022-09-30T13:08:42;100085.19;;;16.10;80.26
977;BME280;477;51.436;7.292;2022-09-30T13:11:38;100093.22;;;16.20;81.80
977;BME280;477;51.436;7.292;2022-09-30T13:14:30;100086.63;;;16.14;84.46
977;BME280;477;51.436;7.292;2022-09-30T13:17:22;100077.78;;;16.15;81.17
977;BME280;477;51.436;7.292;2022-09-30T13:19:53;100086.91;;;16.33;80.83
977;BME280;477;51.436;7.292;2022-09-30T13:22:56;100080.31;;;16.16;78.98
977;BME280;477;51.436;7.292;2022-09-30T13:25:25;100076.63;;;16.19;82.38
977;BME280;477;51.436;7.292;2022-09-30T13:28:27;100075.19;;;16.26;80.54
977;BME280;477;51.436;7.292;2022-09-30T13:31:14;100064.78;;;16.13;76.69
977;BME280;477;51.436;7.292;2022-09-30T13:34:09;100060.63;;;16.33;79.25
977;BME280;477;51.436;7.292;2022-09-30T13:36:40;100068.50;;;16.33;81.90
977;BME280;477;51.436;7.292;2022-09-30T13:39:22;100070.72;;;16.39;80.65
977;BME280;477;51.436;7.292;2022-09-30T13:42:06;100066.66;;;16.47;79.49
977;BME280;477;51.436;7.292;2022-09-30T13:44:55;100072.59;;;16.49;76.21
977;BME280;477;51.436;7.292;2022-09-30T13:47:28;100079.19;;;16.54;78.77
977;BME280;477;51.436;7.292;2022-09-30T13:50:02;100070.94;;;16.59;77.16
977;BME280;477;51.436;7.292;2022-09-30T13:52:34;100067.75;;;16.55;78.27
977;BME280;477;51.436;7.292;2022-09-30T13:55:11;100073.00;;;16.66;79.92
977;BME280;477;51.436;7.292;2022-09-30T13:57:53;100070.75;;;16.73;80.51
977;BME280;477;51.436;7.292;2022-09-30T14:00:24;100066.44;;;16.61;81.46
977;BME280;477;51.436;7.292;2022-09-30T14:03:25;100066.44;;;16.50;80.44
977;BME280;477;51.436;7.292;2022-09-30T14:06:09;100066.78;;;16.67;83.29
977;BME280;477;51.436;7.292;2022-09-30T14:09:10;100068.13;;;16.73;84.47
977;BME280;477;51.436;7.292;2022-09-30T14:12:10;100070.53;;;16.87;79.06
977;BME280;477;51.436;7.292;2022-09-30T14:21:33;100059.53;;;16.82;79.17
977;BME280;477;51.436;7.292;2022-09-30T14:24:10;100051.16;;;16.88;79.18
977;BME280;477;51.436;7.292;2022-09-30T14:30:04;100041.34;;;17.02;77.85
977;BME280;477;51.436;7.292;2022-09-30T14:32:37;100036.81;;;17.04;79.37
977;BME280;477;51.436;7.292;2022-09-30T14:35:13;100040.06;;;17.07;78.95
977;BME280;477;51.436;7.292;2022-09-30T14:37:46;100028.66;;;17.07;78.71
977;BME280;477;51.436;7.292;2022-09-30T14:40:18;100023.41;;;17.07;80.34
977;BME280;477;51.436;7.292;2022-09-30T14:42:47;100026.50;;;17.12;79.50
977;BME280;477;51.436;7.292;2022-09-30T14:45:22;100018.75;;;17.10;77.63
977;BME280;477;51.436;7.292;2022-09-30T14:47:57;100024.84;;;17.11;76.59
977;BME280;477;51.436;7.292;2022-09-30T14:50:41;100017.69;;;17.13;76.25
977;BME280;477;51.436;7.292;2022-09-30T14:53:26;100019.34;;;17.14;77.18
977;BME280;477;51.436;7.292;2022-09-30T14:55:55;100017.88;;;17.21;80.31
977;BME280;477;51.436;7.292;2022-09-30T14:58:27;100018.69;;;17.33;78.84
977;BME280;477;51.436;7.292;2022-09-30T15:01:05;100017.84;;;17.32;78.51
977;BME280;477;51.436;7.292;2022-09-30T15:03:38;100008.78;;;17.25;75.82
977;BME280;477;51.436;7.292;2022-09-30T15:06:18;100015.72;;;17.26;73.96
977;BME280;477;51.436;7.292;2022-09-30T15:08:50;100014.06;;;17.25;75.82
977;BME280;477;51.436;7.292;2022-09-30T15:11:20;100015.34;;;17.31;76.28
977;BME280;477;51.436;7.292;2022-09-30T15:13:58;100015.19;;;17.43;78.86
977;BME280;477;51.436;7.292;2022-09-30T15:16:29;100013.19;;;17.36;73.86
977;BME280;477;51.436;7.292;2022-09-30T15:18:59;100007.00;;;17.26;75.85
977;BME280;477;51.436;7.292;2022-09-30T15:21:29;100000.91;;;17.25;78.12
977;BME280;477;51.436;7.292;2022-09-30T15:24:00;100003.06;;;17.20;75.37
977;BME280;477;51.436;7.292;2022-09-30T15:26:29;99999.81;;;17.16;73.22
977;BME280;477;51.436;7.292;2022-09-30T15:28:59;100005.00;;;17.18;74.59
977;BME280;477;51.436;7.292;2022-09-30T15:31:28;100012.41;;;17.13;73.35
977;BME280;477;51.436;7.292;2022-09-30T15:34:04;100008.81;;;17.14;76.38
977;BME280;477;51.436;7.292;2022-09-30T15:36:35;99998.41;;;17.01;71.64
977;BME280;477;51.436;7.292;2022-09-30T15:39:17;99997.88;;;16.86;72.89
977;BME280;477;51.436;7.292;2022-09-30T15:41:47;99999.38;;;17.00;75.14
977;BME280;477;51.436;7.292;2022-09-30T15:44:18;100001.19;;;17.00;76.44
977;BME280;477;51.436;7.292;2022-09-30T15:47:05;99995.81;;;16.90;75.85
977;BME280;477;51.436;7.292;2022-09-30T15:49:45;100000.50;;;16.86;76.07
977;BME280;477;51.436;7.292;2022-09-30T15:52:29;99996.66;;;16.79;76.70
977;BME280;477;51.436;7.292;2022-09-30T15:55:34;99996.19;;;16.74;79.67
977;BME280;477;51.436;7.292;2022-09-30T15:58:10;99991.88;;;16.84;82.16
977;BME280;477;51.436;7.292;2022-09-30T16:01:14;99995.00;;;16.78;77.99
977;BME280;477;51.436;7.292;2022-09-30T16:03:49;99999.91;;;16.83;83.93
977;BME280;477;51.436;7.292;2022-09-30T16:06:27;99997.84;;;16.75;83.70
977;BME280;477;51.436;7.292;2022-09-30T16:09:01;99992.47;;;16.65;80.41
977;BME280;477;51.436;7.292;2022-09-30T16:11:35;100000.59;;;16.74;85.82
977;BME280;477;51.436;7.292;2022-09-30T16:14:10;99996.88;;;16.65;83.53
977;BME280;477;51.436;7.292;2022-09-30T16:16:48;100003.34;;;16.50;82.58
977;BME280;477;51.436;7.292;2022-09-30T16:19:21;100002.88;;;16.56;85.13
977;BME280;477;51.436;7.292;2022-09-30T16:21:53;99996.53;;;16.58;86.54
977;BME280;477;51.436;7.292;2022-09-30T16:24:46;100005.59;;;16.54;85.98
977;BME280;477;51.436;7.292;2022-09-30T16:27:28;100003.09;;;16.53;90.22
977;BME280;477;51.436;7.292;2022-09-30T16:30:13;100009.19;;;16.53;90.79
977;BME280;477;51.436;7.292;2022-09-30T16:32:45;100014.56;;;16.29;83.72
977;BME280;477;51.436;7.292;2022-09-30T16:35:19;100018.59;;;16.33;89.42
977;BME280;477;51.436;7.292;2022-09-30T16:37:50;100015.59;;;16.27;92.77
977;BME280;477;51.436;7.292;2022-09-30T16:40:22;100014.94;;;16.01;97.44
977;BME280;477;51.436;7.292;2022-09-30T16:42:52;100013.78;;;16.05;97.60
977;BME280;477;51.436;7.292;2022-09-30T16:45:22;100015.22;;;16.09;97.89
977;BME280;477;51.436;7.292;2022-09-30T16:47:52;100025.81;;;16.07;100.00
977;BME280;477;51.436;7.292;2022-09-30T16:50:29;100017.56;;;16.01;99.92
977;BME280;477;51.436;7.292;2022-09-30T16:52:59;100016.13;;;15.97;100.00
977;BME280;477;51.436;7.292;2022-09-30T16:55:28;100019.97;;;16.04;100.00
977;BME280;477;51.436;7.292;2022-09-30T16:57:59;100018.03;;;15.95;100.00
977;BME280;477;51.436;7.292;2022-09-30T17:00:28;100017.06;;;15.84;100.00
977;BME280;477;51.436;7.292;2022-09-30T17:02:57;100024.25;;;15.94;100.00
977;BME280;477;51.436;7.292;2022-09-30T17:05:27;100024.44;;;15.79;100.00
977;BME280;477;51.436;7.292;2022-09-30T17:07:58;100018.91;;;15.71;100.00
977;BME280;477;51.436;7.292;2022-09-30T17:10:29;100020.09;;;15.67;100.00
977;BME280;477;51.436;7.292;2022-09-30T17:13:05;100012.16;;;15.56;100.00
977;BME280;477;51.436;7.292;2022-09-30T17:15:35;100005.41;;;15.64;100.00
977;BME280;477;51.436;7.292;2022-09-30T17:18:05;100005.66;;;15.49;100.00
977;BME280;477;51.436;7.292;2022-09-30T17:20:35;100013.94;;;15.31;100.00
977;BME280;477;51.436;7.292;2022-09-30T17:23:05;100012.28;;;15.18;100.00
977;BME280;477;51.436;7.292;2022-09-30T17:25:34;100017.16;;;15.11;100.00
977;BME280;477;51.436;7.292;2022-09-30T17:28:10;100020.53;;;15.00;100.00
977;BME280;477;51.436;7.292;2022-09-30T17:30:40;100021.81;;;14.95;100.00
977;BME280;477;51.436;7.292;2022-09-30T17:33:09;100018.16;;;14.84;100.00
977;BME280;477;51.436;7.292;2022-09-30T17:35:39;100023.16;;;14.87;100.00
977;BME280;477;51.436;7.292;2022-09-30T17:38:08;100032.94;;;14.85;100.00
977;BME280;477;51.436;7.292;2022-09-30T17:40:38;100027.03;;;14.95;100.00
977;BME280;477;51.436;7.292;2022-09-30T17:43:26;100032.41;;;14.93;100.00
977;BME280;477;51.436;7.292;2022-09-30T17:45:58;100028.06;;;15.05;100.00
977;BME280;477;51.436;7.292;2022-09-30T17:48:28;100028.34;;;15.13;100.00
977;BME280;477;51.436;7.292;2022-09-30T17:50:57;100028.66;;;15.08;100.00
977;BME280;477;51.436;7.292;2022-09-30T17:53:26;100025.47;;;14.92;100.00
977;BME280;477;51.436;7.292;2022-09-30T17:56:02;100023.06;;;14.76;100.00
977;BME280;477;51.436;7.292;2022-09-30T17:58:35;100011.78;;;14.63;100.00
977;BME280;477;51.436;7.292;2022-09-30T18:01:06;100004.22;;;14.46;100.00
977;BME280;477;51.436;7.292;2022-09-30T18:03:35;100012.50;;;14.40;100.00
977;BME280;477;51.436;7.292;2022-09-30T18:06:04;100013.44;;;14.26;100.00
977;BME280;477;51.436;7.292;2022-09-30T18:08:35;100023.91;;;14.13;100.00
977;BME280;477;51.436;7.292;2022-09-30T18:11:05;100023.72;;;14.16;100.00
977;BME280;477;51.436;7.292;2022-09-30T18:13:35;100014.06;;;14.17;100.00
977;BME280;477;51.436;7.292;2022-09-30T18:16:05;100010.91;;;14.24;100.00
977;BME280;477;51.436;7.292;2022-09-30T18:18:34;100008.00;;;14.42;100.00
977;BME280;477;51.436;7.292;2022-09-30T18:21:03;99999.41;;;14.40;100.00
977;BME280;477;51.436;7.292;2022-09-30T18:23:32;99998.78;;;14.23;100.00
977;BME280;477;51.436;7.292;2022-09-30T18:26:01;100004.84;;;14.11;100.00
977;BME280;477;51.436;7.292;2022-09-30T18:28:30;100004.63;;;14.14;100.00
977;BME280;477;51.436;7.292;2022-09-30T18:31:05;100001.38;;;13.98;100.00
977;BME280;477;51.436;7.292;2022-09-30T18:33:35;100002.91;;;13.88;100.00
977;BME280;477;51.436;7.292;2022-09-30T18:36:05;100013.84;;;13.94;100.00